sensor_id;sensor_type;location;lat;lon;timestamp;P1;durP1;ratioP1;P2;durP2;ratioP2
10497;SDS011;5296;51.060;13.750;2023-03-04T00:01:23;24.83;;;15.70;;
10497;SDS011;5296;51.060;13.750;2023-03-04T00:06:24;23.03;;;14.93;;
10497;SDS011;5296;51.060;13.750;2023-03-04T00:11:26;23.83;;;15.10;;
10497;SDS011;5296;51.060;13.750;2023-03-04T00:16:28;19.80;;;13.87;;
10497;SDS011;5296;51.060;13.750;2023-03-04T00:21:29;22.97;;;15.50;;
10497;SDS011;5296;51.060;13.750;2023-03-04T00:26:31;20.83;;;14.03;;
10497;SDS011;5296;51.060;13.750;2023-03-04T00:31:33;19.40;;;13.20;;
10497;SDS011;5296;51.060;13.750;2023-03-04T00:36:35;20.30;;;14.37;;
10497;SDS011;5296;51.060;13.750;2023-03-04T00:41:36;21.20;;;14.03;;
10497;SDS011;5296;51.060;13.750;2023-03-04T00:46:38;20.13;;;13.60;;
10497;SDS011;5296;51.060;13.750;2023-03-04T00:51:40;19.60;;;13.93;;
10497;SDS011;5296;51.060;13.750;2023-03-04T00:56:41;21.67;;;13.70;;
10497;SDS011;5296;51.060;13.750;2023-03-04T01:01:43;20.43;;;13.77;;
10497;SDS011;5296;51.060;13.750;2023-03-04T01:06:45;19.70;;;13.43;;
10497;SDS011;5296;51.060;13.750;2023-03-04T01:11:46;19.23;;;12.90;;
10497;SDS011;5296;51.060;13.750;2023-03-04T01:16:48;17.57;;;13.23;;
10497;SDS011;5296;51.060;13.750;2023-03-04T01:21:50;18.83;;;13.07;;
10497;SDS011;5296;51.060;13.750;2023-03-04T01:26:51;18.33;;;12.93;;
10497;SDS011;5296;51.060;13.750;2023-03-04T01:31:55;17.10;;;12.07;;
10497;SDS011;5296;51.060;13.750;2023-03-04T01:36:57;16.77;;;12.37;;
10497;SDS011;5296;51.060;13.750;2023-03-04T01:41:58;16.63;;;11.43;;
10497;SDS011;5296;51.060;13.750;2023-03-04T01:47:00;13.60;;;10.83;;
10497;SDS011;5296;51.060;13.750;2023-03-04T01:52:02;16.93;;;11.20;;
10497;SDS011;5296;51.060;13.750;2023-03-04T01:57:14;14.53;;;11.63;;
10497;SDS011;5296;51.060;13.750;2023-03-04T02:02:23;13.67;;;10.80;;
10497;SDS011;5296;51.060;13.750;2023-03-04T02:07:25;14.47;;;11.07;;
10497;SDS011;5296;51.060;13.750;2023-03-04T02:12:26;14.40;;;10.83;;
10497;SDS011;5296;51.060;13.750;2023-03-04T02:17:28;12.40;;;9.93;;
10497;SDS011;5296;51.060;13.750;2023-03-04T02:22:30;13.33;;;10.87;;
10497;SDS011;5296;51.060;13.750;2023-03-04T02:27:33;13.07;;;10.20;;
10497;SDS011;5296;51.060;13.750;2023-03-04T02:32:35;12.80;;;10.73;;
10497;SDS011;5296;51.060;13.750;2023-03-04T02:37:36;11.70;;;9.30;;
10497;SDS011;5296;51.060;13.750;2023-03-04T02:42:38;13.47;;;10.60;;
10497;SDS011;5296;51.060;13.750;2023-03-04T02:47:40;13.80;;;10.80;;
10497;SDS011;5296;51.060;13.750;2023-03-04T02:52:42;12.00;;;9.90;;
10497;SDS011;5296;51.060;13.750;2023-03-04T02:57:43;12.60;;;9.63;;
10497;SDS011;5296;51.060;13.750;2023-03-04T03:02:45;13.87;;;10.60;;
10497;SDS011;5296;51.060;13.750;2023-03-04T03:07:47;13.73;;;10.10;;
10497;SDS011;5296;51.060;13.750;2023-03-04T03:12:49;13.60;;;10.90;;
10497;SDS011;5296;51.060;13.750;2023-03-04T03:17:51;12.50;;;10.17;;
10497;SDS011;5296;51.060;13.750;2023-03-04T03:22:53;12.40;;;10.20;;
10497;SDS011;5296;51.060;13.750;2023-03-04T03:27:54;13.83;;;10.73;;
10497;SDS011;5296;51.060;13.750;2023-03-04T03:32:56;14.60;;;11.03;;
10497;SDS011;5296;51.060;13.750;2023-03-04T03:37:58;14.87;;;11.07;;
10497;SDS011;5296;51.060;13.750;2023-03-04T03:43:00;14.90;;;10.80;;
10497;SDS011;5296;51.060;13.750;2023-03-04T03:48:02;16.00;;;10.10;;
10497;SDS011;5296;51.060;13.750;2023-03-04T03:53:04;15.67;;;11.13;;
10497;SDS011;5296;51.060;13.750;2023-03-04T03:58:06;14.40;;;11.23;;
10497;SDS011;5296;51.060;13.750;2023-03-04T04:03:08;13.07;;;11.07;;
10497;SDS011;5296;51.060;13.750;2023-03-04T04:08:12;14.03;;;10.20;;
10497;SDS011;5296;51.060;13.750;2023-03-04T04:13:15;14.20;;;10.83;;
10497;SDS011;5296;51.060;13.750;2023-03-04T04:18:16;12.67;;;10.00;;
10497;SDS011;5296;51.060;13.750;2023-03-04T04:23:18;11.87;;;10.27;;
10497;SDS011;5296;51.060;13.750;2023-03-04T04:28:20;11.60;;;9.43;;
10497;SDS011;5296;51.060;13.750;2023-03-04T04:33:21;13.50;;;9.40;;
10497;SDS011;5296;51.060;13.750;2023-03-04T04:38:23;16.57;;;9.33;;
10497;SDS011;5296;51.060;13.750;2023-03-04T04:43:25;14.03;;;10.17;;
10497;SDS011;5296;51.060;13.750;2023-03-04T04:48:27;15.60;;;10.03;;
10497;SDS011;5296;51.060;13.750;2023-03-04T04:53:28;15.93;;;10.23;;
10497;SDS011;5296;51.060;13.750;2023-03-04T04:58:30;13.03;;;9.47;;
10497;SDS011;5296;51.060;13.750;2023-03-04T05:03:32;13.07;;;9.97;;
10497;SDS011;5296;51.060;13.750;2023-03-04T05:08:35;14.17;;;9.60;;
10497;SDS011;5296;51.060;13.750;2023-03-04T05:13:37;16.60;;;9.70;;
10497;SDS011;5296;51.060;13.750;2023-03-04T05:18:38;15.97;;;9.07;;
10497;SDS011;5296;51.060;13.750;2023-03-04T05:23:40;14.23;;;9.40;;
10497;SDS011;5296;51.060;13.750;2023-03-04T05:28:43;13.50;;;9.60;;
10497;SDS011;5296;51.060;13.750;2023-03-04T05:33:45;12.73;;;9.03;;
10497;SDS011;5296;51.060;13.750;2023-03-04T05:38:46;12.57;;;9.30;;
10497;SDS011;5296;51.060;13.750;2023-03-04T05:43:48;15.33;;;9.20;;
10497;SDS011;5296;51.060;13.750;2023-03-04T05:48:51;15.13;;;9.00;;
10497;SDS011;5296;51.060;13.750;2023-03-04T05:53:53;14.07;;;8.93;;
10497;SDS011;5296;51.060;13.750;2023-03-04T05:58:58;14.40;;;8.70;;
10497;SDS011;5296;51.060;13.750;2023-03-04T06:04:00;15.97;;;9.30;;
10497;SDS011;5296;51.060;13.750;2023-03-04T06:09:01;14.10;;;8.77;;
10497;SDS011;5296;51.060;13.750;2023-03-04T06:14:03;18.40;;;9.77;;
10497;SDS011;5296;51.060;13.750;2023-03-04T06:19:05;11.27;;;8.20;;
10497;SDS011;5296;51.060;13.750;2023-03-04T06:24:07;13.87;;;8.93;;
10497;SDS011;5296;51.060;13.750;2023-03-04T06:29:09;10.97;;;8.60;;
10497;SDS011;5296;51.060;13.750;2023-03-04T06:34:10;14.20;;;8.57;;
10497;SDS011;5296;51.060;13.750;2023-03-04T06:39:12;16.43;;;9.70;;
10497;SDS011;5296;51.060;13.750;2023-03-04T06:44:13;14.13;;;9.00;;
10497;SDS011;5296;51.060;13.750;2023-03-04T06:49:15;16.10;;;9.23;;
10497;SDS011;5296;51.060;13.750;2023-03-04T06:54:17;12.37;;;9.50;;
10497;SDS011;5296;51.060;13.750;2023-03-04T06:59:18;13.23;;;9.40;;
10497;SDS011;5296;51.060;13.750;2023-03-04T07:04:20;13.60;;;8.67;;
10497;SDS011;5296;51.060;13.750;2023-03-04T07:09:23;15.33;;;9.10;;
10497;SDS011;5296;51.060;13.750;2023-03-04T07:14:25;14.77;;;8.93;;
10497;SDS011;5296;51.060;13.750;2023-03-04T07:19:28;12.57;;;9.00;;
10497;SDS011;5296;51.060;13.750;2023-03-04T07:24:30;16.37;;;10.03;;
10497;SDS011;5296;51.060;13.750;2023-03-04T07:29:31;14.07;;;9.83;;
10497;SDS011;5296;51.060;13.750;2023-03-04T07:34:33;19.57;;;9.10;;
10497;SDS011;5296;51.060;13.750;2023-03-04T07:39:35;12.87;;;8.50;;
10497;SDS011;5296;51.060;13.750;2023-03-04T07:44:36;12.20;;;7.83;;
10497;SDS011;5296;51.060;13.750;2023-03-04T07:49:38;12.47;;;8.67;;
10497;SDS011;5296;51.060;13.750;2023-03-04T07:54:40;15.57;;;7.97;;
10497;SDS011;5296;51.060;13.750;2023-03-04T07:59:41;13.50;;;8.10;;
10497;SDS011;5296;51.060;13.750;2023-03-04T08:04:43;12.13;;;7.77;;
10497;SDS011;5296;51.060;13.750;2023-03-04T08:09:45;14.87;;;8.13;;
10497;SDS011;5296;51.060;13.750;2023-03-04T08:14:46;14.67;;;7.87;;
10497;SDS011;5296;51.060;13.750;2023-03-04T08:19:48;13.00;;;7.73;;
10497;SDS011;5296;51.060;13.750;2023-03-04T08:24:49;15.33;;;7.83;;
10497;SDS011;5296;51.060;13.750;2023-03-04T08:29:51;11.63;;;7.27;;
10497;SDS011;5296;51.060;13.750;2023-03-04T08:34:54;12.07;;;7.20;;
10497;SDS011;5296;51.060;13.750;2023-03-04T08:39:57;13.47;;;7.10;;
10497;SDS011;5296;51.060;13.750;2023-03-04T08:44:58;12.40;;;7.43;;
10497;SDS011;5296;51.060;13.750;2023-03-04T08:50:00;12.57;;;7.40;;
10497;SDS011;5296;51.060;13.750;2023-03-04T08:55:02;12.80;;;7.27;;
10497;SDS011;5296;51.060;13.750;2023-03-04T09:00:04;11.47;;;7.17;;
10497;SDS011;5296;51.060;13.750;2023-03-04T09:05:06;10.83;;;7.03;;
10497;SDS011;5296;51.060;13.750;2023-03-04T09:10:08;10.00;;;7.23;;
10497;SDS011;5296;51.060;13.750;2023-03-04T09:15:10;9.87;;;6.90;;
10497;SDS011;5296;51.060;13.750;2023-03-04T09:20:12;11.33;;;6.67;;
10497;SDS011;5296;51.060;13.750;2023-03-04T09:25:14;10.13;;;6.40;;
10497;SDS011;5296;51.060;13.750;2023-03-04T09:30:15;11.77;;;6.13;;
10497;SDS011;5296;51.060;13.750;2023-03-04T09:35:17;12.47;;;5.90;;
10497;SDS011;5296;51.060;13.750;2023-03-04T09:40:20;10.70;;;6.87;;
10497;SDS011;5296;51.060;13.750;2023-03-04T09:45:32;11.47;;;5.97;;
10497;SDS011;5296;51.060;13.750;2023-03-04T09:50:38;12.82;;;6.15;;
10497;SDS011;5296;51.060;13.750;2023-03-04T09:55:44;13.23;;;5.63;;
10497;SDS011;5296;51.060;13.750;2023-03-04T10:00:53;11.70;;;5.97;;
10497;SDS011;5296;51.060;13.750;2023-03-04T10:05:58;10.83;;;6.27;;
10497;SDS011;5296;51.060;13.750;2023-03-04T10:11:02;12.93;;;5.67;;
10497;SDS011;5296;51.060;13.750;2023-03-04T10:16:08;9.27;;;5.67;;
10497;SDS011;5296;51.060;13.750;2023-03-04T10:21:19;12.53;;;5.53;;
10497;SDS011;5296;51.060;13.750;2023-03-04T10:26:24;9.07;;;4.90;;
10497;SDS011;5296;51.060;13.750;2023-03-04T10:31:32;8.77;;;5.33;;
10497;SDS011;5296;51.060;13.750;2023-03-04T10:36:46;9.10;;;5.60;;
10497;SDS011;5296;51.060;13.750;2023-03-04T10:47:08;8.83;;;4.93;;
10497;SDS011;5296;51.060;13.750;2023-03-04T10:52:17;9.50;;;4.78;;
10497;SDS011;5296;51.060;13.750;2023-03-04T11:02:30;7.22;;;4.65;;
10497;SDS011;5296;51.060;13.750;2023-03-04T11:07:35;8.80;;;5.07;;
10497;SDS011;5296;51.060;13.750;2023-03-04T11:18:01;7.10;;;4.97;;
10497;SDS011;5296;51.060;13.750;2023-03-04T11:23:08;5.07;;;4.10;;
10497;SDS011;5296;51.060;13.750;2023-03-04T11:39:02;7.90;;;3.95;;
10497;SDS011;5296;51.060;13.750;2023-03-04T11:44:05;7.18;;;3.90;;
10497;SDS011;5296;51.060;13.750;2023-03-04T12:05:23;5.50;;;3.55;;
10497;SDS011;5296;51.060;13.750;2023-03-04T12:26:35;7.57;;;3.53;;
10497;SDS011;5296;51.060;13.750;2023-03-04T12:31:42;6.88;;;4.10;;
10497;SDS011;5296;51.060;13.750;2023-03-04T12:53:13;5.72;;;3.85;;
10497;SDS011;5296;51.060;13.750;2023-03-04T12:58:38;4.88;;;3.38;;
10497;SDS011;5296;51.060;13.750;2023-03-04T13:03:41;3.47;;;3.15;;
10497;SDS011;5296;51.060;13.750;2023-03-04T13:09:02;3.20;;;2.90;;
10497;SDS011;5296;51.060;13.750;2023-03-04T13:24:53;6.63;;;3.53;;
10497;SDS011;5296;51.060;13.750;2023-03-04T13:29:55;4.75;;;2.85;;
10497;SDS011;5296;51.060;13.750;2023-03-04T13:34:56;5.37;;;3.40;;
10497;SDS011;5296;51.060;13.750;2023-03-04T13:45:33;5.28;;;3.20;;
10497;SDS011;5296;51.060;13.750;2023-03-04T13:50:37;2.92;;;2.35;;
10497;SDS011;5296;51.060;13.750;2023-03-04T13:55:40;3.67;;;2.25;;
10497;SDS011;5296;51.060;13.750;2023-03-04T14:00:46;4.82;;;2.40;;
10497;SDS011;5296;51.060;13.750;2023-03-04T14:11:27;3.63;;;2.47;;
10497;SDS011;5296;51.060;13.750;2023-03-04T14:16:34;3.85;;;2.47;;
10497;SDS011;5296;51.060;13.750;2023-03-04T14:21:42;4.20;;;2.07;;
10497;SDS011;5296;51.060;13.750;2023-03-04T14:26:45;2.67;;;2.28;;
10497;SDS011;5296;51.060;13.750;2023-03-04T14:31:47;5.13;;;2.38;;
10497;SDS011;5296;51.060;13.750;2023-03-04T14:36:49;4.05;;;2.25;;
10497;SDS011;5296;51.060;13.750;2023-03-04T14:41:50;2.30;;;2.10;;
10497;SDS011;5296;51.060;13.750;2023-03-04T14:46:57;3.80;;;2.67;;
10497;SDS011;5296;51.060;13.750;2023-03-04T14:57:32;4.13;;;2.30;;
10497;SDS011;5296;51.060;13.750;2023-03-04T15:02:37;4.35;;;2.85;;
10497;SDS011;5296;51.060;13.750;2023-03-04T15:07:39;6.18;;;2.28;;
10497;SDS011;5296;51.060;13.750;2023-03-04T15:12:41;6.15;;;2.22;;
10497;SDS011;5296;51.060;13.750;2023-03-04T15:18:01;4.90;;;2.05;;
10497;SDS011;5296;51.060;13.750;2023-03-04T15:23:21;5.30;;;2.10;;
10497;SDS011;5296;51.060;13.750;2023-03-04T15:28:23;4.30;;;2.33;;
10497;SDS011;5296;51.060;13.750;2023-03-04T15:33:25;7.43;;;2.10;;
10497;SDS011;5296;51.060;13.750;2023-03-04T15:38:27;4.28;;;2.15;;
10497;SDS011;5296;51.060;13.750;2023-03-04T15:43:30;6.50;;;2.30;;
10497;SDS011;5296;51.060;13.750;2023-03-04T15:48:31;5.68;;;2.20;;
10497;SDS011;5296;51.060;13.750;2023-03-04T15:53:36;6.27;;;2.17;;
10497;SDS011;5296;51.060;13.750;2023-03-04T15:58:40;5.40;;;2.25;;
10497;SDS011;5296;51.060;13.750;2023-03-04T16:03:43;7.28;;;2.42;;
10497;SDS011;5296;51.060;13.750;2023-03-04T16:08:45;6.80;;;2.10;;
10497;SDS011;5296;51.060;13.750;2023-03-04T16:13:47;5.43;;;1.95;;
10497;SDS011;5296;51.060;13.750;2023-03-04T16:18:49;6.47;;;1.92;;
10497;SDS011;5296;51.060;13.750;2023-03-04T16:23:51;6.25;;;2.53;;
10497;SDS011;5296;51.060;13.750;2023-03-04T16:28:53;5.97;;;2.47;;
10497;SDS011;5296;51.060;13.750;2023-03-04T16:33:54;7.57;;;2.60;;
10497;SDS011;5296;51.060;13.750;2023-03-04T16:38:57;8.98;;;2.30;;
10497;SDS011;5296;51.060;13.750;2023-03-04T16:44:03;4.13;;;2.47;;
10497;SDS011;5296;51.060;13.750;2023-03-04T16:49:06;7.43;;;2.40;;
10497;SDS011;5296;51.060;13.750;2023-03-04T16:54:18;8.35;;;3.10;;
10497;SDS011;5296;51.060;13.750;2023-03-04T16:59:26;6.05;;;3.15;;
10497;SDS011;5296;51.060;13.750;2023-03-04T17:04:28;8.10;;;2.75;;
10497;SDS011;5296;51.060;13.750;2023-03-04T17:09:31;7.57;;;3.20;;
10497;SDS011;5296;51.060;13.750;2023-03-04T17:14:33;8.95;;;3.00;;
10497;SDS011;5296;51.060;13.750;2023-03-04T17:19:35;6.38;;;2.50;;
10497;SDS011;5296;51.060;13.750;2023-03-04T17:24:36;7.55;;;2.47;;
10497;SDS011;5296;51.060;13.750;2023-03-04T17:29:38;9.75;;;2.88;;
10497;SDS011;5296;51.060;13.750;2023-03-04T17:34:40;6.80;;;2.40;;
10497;SDS011;5296;51.060;13.750;2023-03-04T17:39:43;7.07;;;2.40;;
10497;SDS011;5296;51.060;13.750;2023-03-04T17:44:44;6.55;;;2.67;;
10497;SDS011;5296;51.060;13.750;2023-03-04T17:49:46;5.13;;;2.45;;
10497;SDS011;5296;51.060;13.750;2023-03-04T17:54:48;6.18;;;4.03;;
10497;SDS011;5296;51.060;13.750;2023-03-04T17:59:49;5.05;;;2.38;;
10497;SDS011;5296;51.060;13.750;2023-03-04T18:04:51;7.70;;;2.40;;
10497;SDS011;5296;51.060;13.750;2023-03-04T18:09:52;7.65;;;2.65;;
10497;SDS011;5296;51.060;13.750;2023-03-04T18:14:54;6.68;;;2.30;;
10497;SDS011;5296;51.060;13.750;2023-03-04T18:19:56;7.85;;;2.78;;
10497;SDS011;5296;51.060;13.750;2023-03-04T18:24:57;6.00;;;2.58;;
10497;SDS011;5296;51.060;13.750;2023-03-04T18:29:59;5.53;;;3.03;;
10497;SDS011;5296;51.060;13.750;2023-03-04T18:35:01;8.63;;;3.50;;
10497;SDS011;5296;51.060;13.750;2023-03-04T18:40:03;7.07;;;2.80;;
10497;SDS011;5296;51.060;13.750;2023-03-04T18:45:05;6.10;;;3.20;;
10497;SDS011;5296;51.060;13.750;2023-03-04T18:50:08;7.32;;;3.88;;
10497;SDS011;5296;51.060;13.750;2023-03-04T18:55:10;6.53;;;3.20;;
10497;SDS011;5296;51.060;13.750;2023-03-04T19:00:13;4.78;;;2.97;;
10497;SDS011;5296;51.060;13.750;2023-03-04T19:05:24;7.10;;;2.72;;
10497;SDS011;5296;51.060;13.750;2023-03-04T19:10:27;4.17;;;2.70;;
10497;SDS011;5296;51.060;13.750;2023-03-04T19:15:29;7.45;;;3.00;;
10497;SDS011;5296;51.060;13.750;2023-03-04T19:20:31;5.57;;;2.90;;
10497;SDS011;5296;51.060;13.750;2023-03-04T19:25:34;7.00;;;2.53;;
10497;SDS011;5296;51.060;13.750;2023-03-04T19:30:37;8.67;;;3.50;;
10497;SDS011;5296;51.060;13.750;2023-03-04T19:35:40;6.35;;;3.50;;
10497;SDS011;5296;51.060;13.750;2023-03-04T19:40:43;7.20;;;3.25;;
10497;SDS011;5296;51.060;13.750;2023-03-04T19:45:54;8.95;;;2.97;;
10497;SDS011;5296;51.060;13.750;2023-03-04T19:50:56;9.63;;;3.30;;
10497;SDS011;5296;51.060;13.750;2023-03-04T19:55:57;8.80;;;2.75;;
10497;SDS011;5296;51.060;13.750;2023-03-04T20:00:59;5.82;;;2.97;;
10497;SDS011;5296;51.060;13.750;2023-03-04T20:06:04;10.90;;;3.13;;
10497;SDS011;5296;51.060;13.750;2023-03-04T20:11:07;8.65;;;3.53;;
10497;SDS011;5296;51.060;13.750;2023-03-04T20:16:12;7.68;;;3.03;;
10497;SDS011;5296;51.060;13.750;2023-03-04T20:21:15;8.75;;;2.85;;
10497;SDS011;5296;51.060;13.750;2023-03-04T20:26:17;10.47;;;2.83;;
10497;SDS011;5296;51.060;13.750;2023-03-04T20:31:26;8.32;;;2.80;;
10497;SDS011;5296;51.060;13.750;2023-03-04T20:36:31;8.73;;;3.13;;
10497;SDS011;5296;51.060;13.750;2023-03-04T20:41:33;9.02;;;3.08;;
10497;SDS011;5296;51.060;13.750;2023-03-04T20:46:36;7.80;;;2.92;;
10497;SDS011;5296;51.060;13.750;2023-03-04T20:51:41;3.53;;;2.30;;
10497;SDS011;5296;51.060;13.750;2023-03-04T20:56:43;8.13;;;2.90;;
10497;SDS011;5296;51.060;13.750;2023-03-04T21:01:45;8.05;;;3.33;;
10497;SDS011;5296;51.060;13.750;2023-03-04T21:06:48;9.80;;;3.30;;
10497;SDS011;5296;51.060;13.750;2023-03-04T21:11:51;10.23;;;3.27;;
10497;SDS011;5296;51.060;13.750;2023-03-04T21:16:55;8.27;;;2.70;;
10497;SDS011;5296;51.060;13.750;2023-03-04T21:21:59;8.23;;;2.80;;
10497;SDS011;5296;51.060;13.750;2023-03-04T21:27:01;11.20;;;3.25;;
10497;SDS011;5296;51.060;13.750;2023-03-04T21:32:06;8.43;;;2.80;;
10497;SDS011;5296;51.060;13.750;2023-03-04T21:37:24;6.80;;;2.70;;
10497;SDS011;5296;51.060;13.750;2023-03-04T21:42:26;8.82;;;3.15;;
10497;SDS011;5296;51.060;13.750;2023-03-04T21:47:28;7.00;;;2.77;;
10497;SDS011;5296;51.060;13.750;2023-03-04T21:52:29;9.40;;;2.30;;
10497;SDS011;5296;51.060;13.750;2023-03-04T21:57:31;9.73;;;2.92;;
10497;SDS011;5296;51.060;13.750;2023-03-04T22:02:33;11.27;;;3.00;;
10497;SDS011;5296;51.060;13.750;2023-03-04T22:07:35;5.77;;;2.70;;
10497;SDS011;5296;51.060;13.750;2023-03-04T22:12:36;9.00;;;2.30;;
10497;SDS011;5296;51.060;13.750;2023-03-04T22:17:38;7.93;;;3.33;;
10497;SDS011;5296;51.060;13.750;2023-03-04T22:22:40;10.00;;;2.75;;
10497;SDS011;5296;51.060;13.750;2023-03-04T22:27:41;8.73;;;2.80;;
10497;SDS011;5296;51.060;13.750;2023-03-04T22:32:43;7.43;;;3.05;;
10497;SDS011;5296;51.060;13.750;2023-03-04T22:37:45;8.77;;;3.10;;
10497;SDS011;5296;51.060;13.750;2023-03-04T22:42:47;7.80;;;2.67;;
10497;SDS011;5296;51.060;13.750;2023-03-04T22:47:50;8.13;;;2.33;;
10497;SDS011;5296;51.060;13.750;2023-03-04T22:52:52;6.00;;;2.83;;
10497;SDS011;5296;51.060;13.750;2023-03-04T22:57:54;4.78;;;2.35;;
10497;SDS011;5296;51.060;13.750;2023-03-04T23:02:56;8.80;;;2.55;;
10497;SDS011;5296;51.060;13.750;2023-03-04T23:07:58;6.70;;;2.80;;
10497;SDS011;5296;51.060;13.750;2023-03-04T23:12:59;9.60;;;2.80;;
10497;SDS011;5296;51.060;13.750;2023-03-04T23:18:01;7.60;;;2.77;;
10497;SDS011;5296;51.060;13.750;2023-03-04T23:23:03;8.75;;;2.65;;
10497;SDS011;5296;51.060;13.750;2023-03-04T23:28:04;9.40;;;2.67;;
10497;SDS011;5296;51.060;13.750;2023-03-04T23:33:06;7.13;;;2.40;;
10497;SDS011;5296;51.060;13.750;2023-03-04T23:38:07;7.38;;;2.58;;
10497;SDS011;5296;51.060;13.750;2023-03-04T23:43:09;7.68;;;2.60;;
10497;SDS011;5296;51.060;13.750;2023-03-04T23:48:11;11.60;;;2.37;;
10497;SDS011;5296;51.060;13.750;2023-03-04T23:53:12;5.73;;;2.37;;
10497;SDS011;5296;51.060;13.750;2023-03-04T23:58:14;6.90;;;2.70;;
